createdAt,value
2023-01-03T00:01:30.151Z,4.03
2023-01-03T00:03:58.529Z,4.23
2023-01-03T00:06:29.182Z,4.37
2023-01-03T00:08:57.772Z,4.17
2023-01-03T00:11:46.083Z,4.67
2023-01-03T00:14:14.974Z,4.30
2023-01-03T00:16:41.819Z,4.60
2023-01-03T00:19:11.556Z,3.77
2023-01-03T00:21:39.276Z,4.10
2023-01-03T00:24:09.373Z,3.50
2023-01-03T00:26:36.886Z,3.90
2023-01-03T00:29:03.930Z,3.30
2023-01-03T00:31:33.812Z,3.53
2023-01-03T00:34:02.575Z,3.90
2023-01-03T00:36:33.298Z,4.17
2023-01-03T00:39:00.575Z,4.83
2023-01-03T00:41:28.248Z,4.40
2023-01-03T00:43:54.812Z,4.30
2023-01-03T00:46:24.182Z,4.10
2023-01-03T00:48:51.355Z,4.93
2023-01-03T00:51:28.269Z,4.77
2023-01-03T00:53:57.862Z,4.13
2023-01-03T00:56:27.356Z,4.00
2023-01-03T00:58:54.399Z,4.60
2023-01-03T01:01:44.015Z,4.70
2023-01-03T01:04:35.137Z,4.03
2023-01-03T01:07:04.258Z,4.17
2023-01-03T01:09:37.117Z,4.30
2023-01-03T01:12:05.406Z,4.30
2023-01-03T01:14:33.798Z,4.40
2023-01-03T01:17:06.132Z,4.83
2023-01-03T01:19:35.851Z,3.90
2023-01-03T01:22:02.666Z,3.83
2023-01-03T01:24:29.606Z,4.47
2023-01-03T01:26:57.181Z,4.83
2023-01-03T01:29:23.994Z,3.53
2023-01-03T01:31:50.627Z,3.87
2023-01-03T01:34:17.387Z,4.60
2023-01-03T01:36:45.452Z,4.27
2023-01-03T01:39:26.399Z,3.90
2023-01-03T01:42:21.200Z,4.40
2023-01-03T01:45:01.566Z,5.20
2023-01-03T01:47:39.258Z,4.93
2023-01-03T01:50:08.485Z,4.73
2023-01-03T01:52:40.759Z,4.50
2023-01-03T01:55:13.215Z,4.83
2023-01-03T01:57:41.046Z,4.23
2023-01-03T02:00:11.262Z,4.30
2023-01-03T02:02:38.166Z,4.90
2023-01-03T02:05:07.492Z,5.13
2023-01-03T02:07:35.789Z,5.20
2023-01-03T02:10:02.364Z,4.43
2023-01-03T02:13:05.773Z,4.07
2023-01-03T02:15:56.663Z,4.50
2023-01-03T02:19:11.331Z,5.63
2023-01-03T02:22:05.012Z,4.17
2023-01-03T02:24:49.562Z,5.10
2023-01-03T02:27:59.480Z,5.47
2023-01-03T02:30:33.894Z,4.50
2023-01-03T02:33:10.059Z,5.00
2023-01-03T02:35:42.577Z,4.47
2023-01-03T02:38:18.342Z,5.67
2023-01-03T02:40:50.031Z,4.50
2023-01-03T02:43:29.756Z,4.73
2023-01-03T02:46:01.245Z,4.43
2023-01-03T02:48:51.943Z,5.60
2023-01-03T02:51:22.416Z,5.17
2023-01-03T02:53:50.149Z,5.20
2023-01-03T02:56:33.068Z,5.13
2023-01-03T02:59:02.359Z,4.43
2023-01-03T03:01:30.220Z,5.20
2023-01-03T03:03:58.164Z,5.20
2023-01-03T03:06:49.589Z,5.60
2023-01-03T03:09:17.295Z,5.17
2023-01-03T03:12:02.826Z,4.83
2023-01-03T03:14:35.239Z,4.67
2023-01-03T03:17:08.887Z,4.03
2023-01-03T03:19:55.871Z,4.63
2023-01-03T03:22:43.456Z,4.10
2023-01-03T03:25:18.786Z,4.00
2023-01-03T03:28:05.459Z,4.63
2023-01-03T03:30:33.974Z,5.27
2023-01-03T03:33:06.825Z,4.57
2023-01-03T03:35:55.017Z,5.10
2023-01-03T03:38:32.113Z,5.03
2023-01-03T03:41:40.301Z,5.60
2023-01-03T03:44:48.877Z,4.50
2023-01-03T03:47:30.708Z,4.83
2023-01-03T03:50:02.279Z,4.37
2023-01-03T03:52:31.327Z,4.80
2023-01-03T03:55:04.090Z,5.47
2023-01-03T03:57:39.887Z,4.17
2023-01-03T04:00:12.464Z,4.60
2023-01-03T04:02:40.461Z,5.03
2023-01-03T04:05:12.740Z,5.37
2023-01-03T04:07:40.467Z,4.90
2023-01-03T04:10:08.317Z,4.87
2023-01-03T04:12:34.908Z,4.73
2023-01-03T04:15:02.600Z,4.60
2023-01-03T04:17:29.347Z,5.37
2023-01-03T04:19:55.787Z,5.33
2023-01-03T04:22:22.391Z,4.77
2023-01-03T04:24:48.910Z,4.80
2023-01-03T04:27:15.445Z,5.20
2023-01-03T04:29:41.893Z,5.47
2023-01-03T04:32:08.600Z,4.87
2023-01-03T04:34:35.287Z,5.30
2023-01-03T04:37:02.156Z,4.80
2023-01-03T04:39:28.680Z,5.50
2023-01-03T04:41:55.309Z,5.00
2023-01-03T04:44:21.791Z,4.60
2023-01-03T04:46:52.749Z,5.70
2023-01-03T04:49:20.877Z,5.00
2023-01-03T04:51:47.424Z,5.73
2023-01-03T04:54:14.087Z,5.57
2023-01-03T04:56:41.182Z,6.67
2023-01-03T04:59:08.887Z,5.60
2023-01-03T05:01:37.860Z,5.10
2023-01-03T05:04:05.122Z,4.83
2023-01-03T05:06:31.692Z,4.60
2023-01-03T05:09:00.619Z,6.10
2023-01-03T05:11:27.113Z,4.97
2023-01-03T05:13:53.894Z,5.10
2023-01-03T05:16:20.791Z,4.73
2023-01-03T05:18:48.965Z,5.90
2023-01-03T05:21:36.448Z,5.87
2023-01-03T05:24:21.486Z,5.80
2023-01-03T05:26:48.224Z,5.70
2023-01-03T05:29:16.852Z,4.83
2023-01-03T05:31:43.491Z,5.27
2023-01-03T05:34:10.129Z,4.97
2023-01-03T05:36:36.604Z,6.63
2023-01-03T05:39:04.426Z,5.70
2023-01-03T05:41:49.586Z,5.07
2023-01-03T05:44:16.811Z,5.43
2023-01-03T05:46:43.655Z,5.27
2023-01-03T05:49:11.650Z,5.97
2023-01-03T05:51:38.152Z,6.20
2023-01-03T05:54:05.332Z,5.33
2023-01-03T05:56:32.126Z,4.70
2023-01-03T05:58:59.573Z,5.37
2023-01-03T06:01:26.763Z,6.00
2023-01-03T06:03:53.432Z,5.30
2023-01-03T06:06:19.952Z,5.43
2023-01-03T06:08:47.420Z,4.90
2023-01-03T06:11:15.341Z,6.10
2023-01-03T06:13:41.994Z,5.83
2023-01-03T06:16:32.908Z,6.57
2023-01-03T06:19:00.338Z,8.40
2023-01-03T06:21:26.983Z,6.23
2023-01-03T06:23:53.600Z,6.30
2023-01-03T06:26:22.646Z,5.43
2023-01-03T06:28:49.685Z,6.10
2023-01-03T06:31:17.668Z,6.30
2023-01-03T06:33:44.500Z,6.60
2023-01-03T06:36:13.596Z,6.00
2023-01-03T06:38:40.562Z,5.67
2023-01-03T06:41:07.225Z,5.00
2023-01-03T06:43:34.564Z,6.03
2023-01-03T06:46:20.161Z,6.83
2023-01-03T06:49:07.000Z,6.60
2023-01-03T06:51:52.848Z,7.10
2023-01-03T06:54:26.870Z,6.27
2023-01-03T06:57:04.513Z,5.90
2023-01-03T06:59:34.081Z,6.00
2023-01-03T07:02:01.492Z,5.60
2023-01-03T07:04:28.236Z,6.10
2023-01-03T07:06:55.029Z,5.80
2023-01-03T07:09:21.754Z,6.27
2023-01-03T07:11:48.425Z,5.37
2023-01-03T07:14:15.115Z,5.80
2023-01-03T07:16:45.537Z,6.40
2023-01-03T07:19:14.069Z,6.83
2023-01-03T07:21:41.359Z,8.37
2023-01-03T07:24:09.409Z,9.93
2023-01-03T07:26:37.187Z,8.40
2023-01-03T07:29:06.779Z,6.50
2023-01-03T07:31:39.080Z,7.40
2023-01-03T07:34:05.912Z,6.30
2023-01-03T07:36:33.170Z,7.10
2023-01-03T07:38:59.898Z,6.33
2023-01-03T07:41:46.749Z,8.10
2023-01-03T07:44:13.346Z,5.80
2023-01-03T07:46:40.056Z,6.17
2023-01-03T07:49:11.532Z,6.10
2023-01-03T07:51:39.079Z,6.70
2023-01-03T07:54:07.891Z,5.67
2023-01-03T07:56:34.791Z,6.20
2023-01-03T07:59:02.052Z,6.83
2023-01-03T08:01:30.680Z,7.53
2023-01-03T08:03:58.290Z,7.93
2023-01-03T08:06:25.465Z,7.73
2023-01-03T08:09:11.187Z,6.37
2023-01-03T08:11:59.079Z,7.97
2023-01-03T08:14:27.424Z,8.00
2023-01-03T08:16:55.360Z,7.57
2023-01-03T08:19:22.845Z,7.00
2023-01-03T08:21:49.544Z,6.17
2023-01-03T08:24:18.795Z,6.50
2023-01-03T08:26:45.666Z,7.57
2023-01-03T08:29:13.696Z,6.83
2023-01-03T08:31:49.107Z,7.10
2023-01-03T08:34:22.340Z,6.50
2023-01-03T08:36:58.482Z,6.93
2023-01-03T08:39:28.312Z,8.17
2023-01-03T08:42:03.905Z,7.53
2023-01-03T08:44:32.551Z,8.17
2023-01-03T08:47:01.318Z,8.47
2023-01-03T08:49:28.252Z,10.10
2023-01-03T08:51:55.974Z,10.20
2023-01-03T08:54:23.980Z,8.83
2023-01-03T08:56:53.872Z,9.27
2023-01-03T08:59:21.720Z,9.53
2023-01-03T09:01:49.795Z,10.70
2023-01-03T09:04:16.920Z,10.47
2023-01-03T09:06:43.579Z,9.93
2023-01-03T09:09:10.383Z,8.80
2023-01-03T09:11:39.726Z,8.70
2023-01-03T09:14:06.733Z,9.10
2023-01-03T09:16:34.584Z,7.83
2023-01-03T09:19:02.838Z,7.97
2023-01-03T09:21:32.982Z,8.43
2023-01-03T09:24:00.774Z,7.73
2023-01-03T09:26:28.184Z,8.20
2023-01-03T09:28:54.916Z,7.57
2023-01-03T09:31:23.307Z,7.27
2023-01-03T09:33:51.727Z,8.70
2023-01-03T09:36:18.320Z,7.93
2023-01-03T09:38:44.928Z,9.60
2023-01-03T09:41:30.048Z,8.10
2023-01-03T09:44:03.740Z,8.70
2023-01-03T09:46:38.334Z,10.37
2023-01-03T09:49:07.477Z,8.80
2023-01-03T09:51:59.160Z,9.00
2023-01-03T09:54:54.146Z,8.60
2023-01-03T09:57:53.375Z,8.97
2023-01-03T10:00:45.122Z,10.70
2023-01-03T10:03:51.465Z,10.70
2023-01-03T10:06:30.620Z,10.07
2023-01-03T10:09:13.571Z,8.90
2023-01-03T10:11:45.615Z,10.40
2023-01-03T10:14:40.488Z,10.37
2023-01-03T10:17:30.162Z,11.03
2023-01-03T10:20:03.500Z,10.43
2023-01-03T10:22:44.711Z,10.70
2023-01-03T10:25:19.536Z,9.60
2023-01-03T10:27:57.399Z,9.80
2023-01-03T10:30:30.673Z,9.80
2023-01-03T10:33:09.984Z,11.20
2023-01-03T10:35:37.345Z,9.93
2023-01-03T10:38:05.204Z,10.77
2023-01-03T10:40:48.125Z,9.87
2023-01-03T10:43:26.546Z,10.00
2023-01-03T10:46:37.474Z,8.60
2023-01-03T10:49:30.448Z,11.20
2023-01-03T10:52:02.837Z,10.27
2023-01-03T10:54:36.557Z,11.53
2023-01-03T10:57:05.571Z,11.63
2023-01-03T10:59:36.174Z,12.53
2023-01-03T11:02:13.020Z,15.80
2023-01-03T11:04:42.807Z,14.77
2023-01-03T11:07:17.781Z,12.17
2023-01-03T11:09:51.490Z,10.07
2023-01-03T11:12:26.817Z,7.30
2023-01-03T11:14:58.612Z,5.77
2023-01-03T11:17:26.300Z,6.40
2023-01-03T11:19:53.253Z,5.97
2023-01-03T11:22:42.092Z,6.27
2023-01-03T11:25:39.649Z,5.60
2023-01-03T11:28:16.442Z,6.00
2023-01-03T11:30:58.821Z,5.23
2023-01-03T11:34:02.166Z,5.30
2023-01-03T11:36:45.201Z,5.40
2023-01-03T11:39:43.522Z,6.00
2023-01-03T11:42:35.879Z,5.93
2023-01-03T11:45:26.749Z,5.60
2023-01-03T11:48:01.131Z,6.07
2023-01-03T11:50:48.969Z,5.73
2023-01-03T11:53:35.951Z,5.80
2023-01-03T11:56:21.420Z,5.00
2023-01-03T11:59:11.886Z,6.60
2023-01-03T12:02:06.785Z,6.70
2023-01-03T12:04:56.555Z,6.20
2023-01-03T12:07:47.554Z,5.53
2023-01-03T12:10:37.915Z,5.37
2023-01-03T12:13:39.891Z,5.40
2023-01-03T12:16:17.436Z,6.17
2023-01-03T12:18:56.806Z,5.50
2023-01-03T12:21:38.250Z,6.20
2023-01-03T12:24:13.813Z,6.80
2023-01-03T12:26:44.718Z,6.10
2023-01-03T12:29:31.476Z,7.63
2023-01-03T12:32:05.845Z,8.47
2023-01-03T12:34:40.243Z,7.40
2023-01-03T12:37:31.002Z,8.97
2023-01-03T12:40:05.151Z,9.63
2023-01-03T12:42:57.082Z,8.43
2023-01-03T12:45:38.632Z,8.67
2023-01-03T12:48:15.488Z,8.33
2023-01-03T12:50:44.427Z,10.63
2023-01-03T12:53:46.888Z,9.23
2023-01-03T12:56:44.082Z,10.07
2023-01-03T12:59:29.551Z,9.00
2023-01-03T13:02:02.901Z,8.03
2023-01-03T13:04:40.443Z,7.47
2023-01-03T13:07:28.618Z,7.47
2023-01-03T13:10:02.295Z,9.30
2023-01-03T13:12:30.797Z,7.50
2023-01-03T13:15:04.863Z,7.83
2023-01-03T13:17:42.468Z,9.27
2023-01-03T13:20:24.578Z,8.27
2023-01-03T13:23:13.599Z,8.30
2023-01-03T13:25:44.349Z,9.20
2023-01-03T13:28:20.542Z,10.40
2023-01-03T13:30:47.882Z,9.13
2023-01-03T13:33:20.457Z,9.30
2023-01-03T13:35:50.128Z,9.07
2023-01-03T13:38:40.724Z,10.23
2023-01-03T13:41:35.413Z,10.40
2023-01-03T13:44:09.141Z,8.93
2023-01-03T13:46:40.835Z,9.13
2023-01-03T13:49:12.283Z,11.53
2023-01-03T13:51:54.358Z,9.70
2023-01-03T13:54:56.292Z,8.87
2023-01-03T13:57:38.451Z,9.37
2023-01-03T14:00:18.291Z,10.30
2023-01-03T14:03:13.160Z,8.70
2023-01-03T14:06:06.367Z,9.10
2023-01-03T14:08:42.128Z,9.63
2023-01-03T14:11:44.675Z,11.07
2023-01-03T14:14:14.791Z,10.40
2023-01-03T14:16:46.081Z,10.40
2023-01-03T14:19:32.865Z,9.80
2023-01-03T14:22:27.589Z,9.30
2023-01-03T14:24:56.837Z,11.33
2023-01-03T14:27:28.481Z,12.67
2023-01-03T14:29:56.203Z,11.30
2023-01-03T14:32:32.096Z,11.57
2023-01-03T14:35:05.597Z,9.00
2023-01-03T14:37:35.096Z,11.23
2023-01-03T14:40:08.497Z,10.90
2023-01-03T14:42:36.759Z,9.10
2023-01-03T14:45:08.273Z,8.53
2023-01-03T14:47:38.416Z,8.40
2023-01-03T14:50:06.757Z,9.60
2023-01-03T14:52:47.326Z,8.10
2023-01-03T14:55:19.129Z,9.00
2023-01-03T14:57:47.567Z,8.70
2023-01-03T15:00:20.895Z,7.93
2023-01-03T15:02:50.718Z,9.50
2023-01-03T15:05:32.151Z,7.40
2023-01-03T15:08:21.623Z,10.90
2023-01-03T15:10:49.899Z,10.20
2023-01-03T15:13:24.396Z,9.30
2023-01-03T15:16:00.960Z,7.27
2023-01-03T15:18:31.173Z,8.00
2023-01-03T15:20:59.628Z,7.40
2023-01-03T15:23:46.165Z,7.13
2023-01-03T15:26:27.713Z,6.30
2023-01-03T15:29:09.881Z,5.30
2023-01-03T15:31:38.592Z,6.57
2023-01-03T15:34:14.223Z,5.87
2023-01-03T15:36:52.151Z,5.23
2023-01-03T15:39:29.835Z,6.97
2023-01-03T15:45:12.396Z,8.07
2023-01-03T15:47:39.753Z,8.60
2023-01-03T15:50:07.052Z,7.40
2023-01-03T15:52:33.729Z,9.37
2023-01-03T15:55:00.541Z,6.13
2023-01-03T15:57:30.280Z,6.30
2023-01-03T16:00:05.253Z,4.40
2023-01-03T16:02:35.888Z,5.13
2023-01-03T16:05:02.755Z,5.60
2023-01-03T16:07:30.360Z,5.27
2023-01-03T16:09:59.847Z,6.50
2023-01-03T16:12:35.775Z,6.37
2023-01-03T16:15:07.099Z,9.63
2023-01-03T16:17:33.924Z,7.40
2023-01-03T16:20:01.008Z,6.90
2023-01-03T16:22:35.017Z,6.93
2023-01-03T16:25:04.450Z,7.00
2023-01-03T16:27:31.253Z,7.40
2023-01-03T16:29:57.928Z,7.27
2023-01-03T16:32:34.034Z,7.33
2023-01-03T16:35:03.336Z,9.53
2023-01-03T16:37:34.406Z,8.43
2023-01-03T16:40:02.853Z,7.93
2023-01-03T16:42:30.357Z,7.57
2023-01-03T16:44:58.862Z,7.30
2023-01-03T16:47:30.937Z,7.87
2023-01-03T16:50:05.393Z,8.57
2023-01-03T16:52:37.457Z,7.50
2023-01-03T16:55:17.531Z,5.20
2023-01-03T16:57:52.151Z,5.87
2023-01-03T17:00:30.194Z,3.80
2023-01-03T17:03:00.772Z,3.90
2023-01-03T17:05:30.073Z,5.53
2023-01-03T17:08:03.903Z,7.53
2023-01-03T17:10:35.301Z,9.27
2023-01-03T17:13:12.793Z,7.80
2023-01-03T17:15:41.040Z,7.70
2023-01-03T17:18:18.716Z,7.47
2023-01-03T17:20:45.596Z,10.20
2023-01-03T17:23:12.840Z,8.10
2023-01-03T17:25:40.491Z,8.77
2023-01-03T17:28:12.192Z,7.70
2023-01-03T17:30:38.849Z,5.30
2023-01-03T17:33:05.876Z,4.87
2023-01-03T17:35:32.808Z,4.80
2023-01-03T17:38:24.650Z,5.43
2023-01-03T17:40:48.290Z,7.40
2023-01-03T17:43:34.733Z,7.33
2023-01-03T17:46:23.617Z,7.30
2023-01-03T17:49:13.666Z,8.03
2023-01-03T17:51:41.287Z,11.53
2023-01-03T17:54:09.492Z,12.33
2023-01-03T17:56:40.999Z,11.77
2023-01-03T17:59:08.363Z,11.70
2023-01-03T18:01:35.997Z,13.03
2023-01-03T18:04:05.636Z,11.03
2023-01-03T18:06:35.092Z,11.17
2023-01-03T18:09:04.601Z,10.90
2023-01-03T18:11:31.790Z,12.80
2023-01-03T18:13:59.096Z,10.30
2023-01-03T18:16:25.897Z,9.43
2023-01-03T18:18:55.253Z,11.00
2023-01-03T18:21:29.236Z,9.70
2023-01-03T18:24:06.234Z,8.87
2023-01-03T18:26:35.197Z,7.50
2023-01-03T18:29:06.503Z,7.53
2023-01-03T18:31:33.465Z,8.10
2023-01-03T18:34:04.818Z,8.77
2023-01-03T18:36:38.160Z,10.10
2023-01-03T18:39:07.899Z,8.30
2023-01-03T18:41:36.999Z,11.33
2023-01-03T18:44:21.306Z,8.50
2023-01-03T18:46:52.334Z,7.90
2023-01-03T18:49:21.782Z,8.63
2023-01-03T18:51:53.297Z,19.97
2023-01-03T18:54:22.736Z,29.57
2023-01-03T18:56:50.514Z,25.83
2023-01-03T18:59:25.329Z,26.47
2023-01-03T19:01:58.615Z,25.10
2023-01-03T19:04:36.148Z,16.47
2023-01-03T19:07:03.941Z,12.10
2023-01-03T19:10:04.252Z,11.83
2023-01-03T19:12:38.389Z,10.53
2023-01-03T19:15:32.205Z,13.00
2023-01-03T19:18:06.994Z,13.90
2023-01-03T19:20:35.451Z,11.37
2023-01-03T19:23:02.677Z,11.77
2023-01-03T19:25:41.794Z,10.57
2023-01-03T19:28:16.868Z,10.00
2023-01-03T19:30:49.436Z,11.93
2023-01-03T19:33:20.179Z,11.00
2023-01-03T19:35:47.121Z,10.67
2023-01-03T19:38:17.123Z,9.60
2023-01-03T19:40:45.346Z,11.77
2023-01-03T19:43:20.660Z,12.10
2023-01-03T19:45:50.172Z,10.63
2023-01-03T19:48:26.549Z,11.67
2023-01-03T19:50:53.621Z,8.00
2023-01-03T19:53:22.932Z,9.33
2023-01-03T19:55:52.595Z,9.63
2023-01-03T19:58:30.491Z,10.00
2023-01-03T20:01:09.008Z,12.03
2023-01-03T20:03:46.343Z,13.17
2023-01-03T20:09:34.768Z,6.47
2023-01-03T20:17:26.792Z,13.43
2023-01-03T20:19:54.894Z,13.53
2023-01-03T20:23:02.531Z,13.70
2023-01-03T20:25:21.889Z,14.33
2023-01-03T20:27:48.452Z,14.07
2023-01-03T20:30:20.167Z,16.90
2023-01-03T20:32:49.196Z,14.43
2023-01-03T20:38:13.566Z,15.40
2023-01-03T20:40:41.324Z,13.20
2023-01-03T20:43:14.398Z,11.80
2023-01-03T20:45:43.774Z,23.43
2023-01-03T20:48:25.990Z,12.30
2023-01-03T20:50:53.210Z,9.90
2023-01-03T20:53:24.969Z,9.80
2023-01-03T20:55:55.057Z,11.80
2023-01-03T20:58:27.919Z,12.67
2023-01-03T21:01:04.010Z,16.17
2023-01-03T21:03:35.458Z,13.03
2023-01-03T21:06:03.382Z,11.47
2023-01-03T21:08:50.412Z,10.80
2023-01-03T21:11:18.266Z,13.97
2023-01-03T21:13:51.727Z,10.33
2023-01-03T21:16:49.125Z,9.27
2023-01-03T21:19:21.795Z,7.50
2023-01-03T21:21:51.913Z,6.90
2023-01-03T21:24:21.668Z,6.57
2023-01-03T21:26:48.656Z,7.77
2023-01-03T21:29:16.370Z,7.17
2023-01-03T21:31:45.207Z,8.00
2023-01-03T21:34:18.621Z,7.80
2023-01-03T21:36:46.675Z,8.30
2023-01-03T21:39:13.680Z,10.60
2023-01-03T21:42:01.196Z,9.80
2023-01-03T21:44:28.929Z,8.87
2023-01-03T21:47:01.214Z,8.10
2023-01-03T21:49:28.034Z,9.03
2023-01-03T21:51:59.268Z,10.07
2023-01-03T21:54:26.067Z,9.47
2023-01-03T21:56:53.483Z,7.60
2023-01-03T21:59:21.225Z,7.70
2023-01-03T22:02:07.427Z,8.13
2023-01-03T22:04:35.978Z,7.50
2023-01-03T22:07:02.802Z,8.97
2023-01-03T22:09:51.272Z,8.50
2023-01-03T22:12:21.537Z,10.73
2023-01-03T22:14:49.314Z,7.73
2023-01-03T22:17:17.535Z,8.70
2023-01-03T22:19:50.049Z,8.50
2023-01-03T22:22:16.949Z,9.90
2023-01-03T22:24:43.756Z,8.93
2023-01-03T22:27:10.846Z,9.60
2023-01-03T22:29:37.450Z,7.60
2023-01-03T22:32:10.304Z,8.33
2023-01-03T22:34:39.538Z,9.83
2023-01-03T22:37:09.291Z,10.90
2023-01-03T22:39:36.407Z,9.83
2023-01-03T22:42:03.510Z,9.70
2023-01-03T22:44:30.337Z,8.90
2023-01-03T22:46:56.982Z,8.30
2023-01-03T22:49:24.732Z,9.13
2023-01-03T22:51:52.578Z,9.47
2023-01-03T22:54:19.439Z,8.07
2023-01-03T22:56:46.298Z,8.73
2023-01-03T22:59:13.432Z,9.33
2023-01-03T23:01:41.958Z,9.90
2023-01-03T23:04:10.305Z,9.93
2023-01-03T23:06:38.002Z,11.30
2023-01-03T23:09:05.675Z,10.50
2023-01-03T23:11:51.869Z,10.10
2023-01-03T23:14:20.265Z,9.10
2023-01-03T23:16:47.745Z,10.67
2023-01-03T23:19:15.777Z,8.50
2023-01-03T23:21:42.648Z,8.43
2023-01-03T23:24:19.785Z,10.17
2023-01-03T23:26:49.462Z,8.17
2023-01-03T23:29:16.466Z,8.13
2023-01-03T23:31:44.444Z,8.47
2023-01-03T23:34:12.084Z,9.30
2023-01-03T23:36:39.399Z,9.37
2023-01-03T23:39:06.322Z,8.30
2023-01-03T23:41:34.673Z,9.00
2023-01-03T23:44:01.339Z,9.00
2023-01-03T23:46:30.722Z,9.10
2023-01-03T23:48:58.112Z,8.80
2023-01-03T23:51:25.619Z,8.57
2023-01-03T23:53:53.196Z,8.60
2023-01-03T23:56:21.796Z,8.63
2023-01-03T23:58:48.597Z,10.37
